createdAt,value
2018-07-31T05:28:15.443Z,20.60
2018-07-31T05:30:44.354Z,20.80
2018-07-31T05:33:13.231Z,21.00
2018-07-31T05:35:42.143Z,21.20
2018-07-31T05:38:11.362Z,21.50
2018-07-31T05:40:40.699Z,21.70
2018-07-31T05:43:09.584Z,21.90
2018-07-31T05:45:38.740Z,22.00
2018-07-31T05:48:07.634Z,22.10
2018-07-31T05:50:36.651Z,22.20
2018-07-31T05:53:05.563Z,22.30
2018-07-31T05:55:34.458Z,22.40
2018-07-31T05:58:03.362Z,22.50
2018-07-31T06:00:32.238Z,22.50
2018-07-31T06:03:01.135Z,22.70
2018-07-31T06:05:30.021Z,22.80
2018-07-31T06:07:58.926Z,22.90
2018-07-31T06:10:27.822Z,22.90
2018-07-31T06:12:56.747Z,23.00
2018-07-31T06:17:54.336Z,23.30
2018-07-31T06:20:23.283Z,23.40
2018-07-31T06:22:52.178Z,23.40
2018-07-31T06:25:21.064Z,23.60
2018-07-31T06:27:50.030Z,23.70
2018-07-31T06:30:18.950Z,23.90
2018-07-31T06:32:47.897Z,24.10
2018-07-31T06:35:16.778Z,24.20
2018-07-31T06:37:45.702Z,24.30
2018-07-31T06:40:14.580Z,24.40
2018-07-31T06:42:43.470Z,24.70
2018-07-31T06:45:12.342Z,24.80
2018-07-31T06:47:41.277Z,25.10
2018-07-31T06:50:10.148Z,25.30
2018-07-31T06:52:39.051Z,25.50
2018-07-31T06:55:07.926Z,25.70
2018-07-31T06:57:36.847Z,25.90
2018-07-31T07:00:05.854Z,26.10
2018-07-31T07:02:34.798Z,26.30
2018-07-31T07:05:03.923Z,26.20
2018-07-31T07:07:32.853Z,26.30
2018-07-31T07:10:01.736Z,26.50
2018-07-31T07:12:30.636Z,26.50
2018-07-31T07:14:59.526Z,26.50
2018-07-31T07:17:28.456Z,26.80
2018-07-31T07:19:57.349Z,27.20
2018-07-31T07:22:26.255Z,27.40
2018-07-31T07:27:23.854Z,27.60
2018-07-31T07:29:52.757Z,27.60
2018-07-31T07:32:21.693Z,27.80
2018-07-31T07:34:50.582Z,28.00
2018-07-31T07:37:19.473Z,27.80
2018-07-31T07:39:48.396Z,27.90
2018-07-31T07:42:17.275Z,27.80
2018-07-31T07:44:46.180Z,28.10
2018-07-31T07:47:15.077Z,28.50
2018-07-31T07:49:43.967Z,28.80
2018-07-31T07:52:12.946Z,28.70
2018-07-31T07:54:41.899Z,28.40
2018-07-31T07:57:10.787Z,28.50
2018-07-31T07:59:39.706Z,28.70
2018-07-31T08:02:08.600Z,29.10
2018-07-31T08:04:37.507Z,29.20
2018-07-31T08:07:06.608Z,29.40
2018-07-31T08:09:35.507Z,29.70
2018-07-31T08:12:04.396Z,29.70
2018-07-31T08:14:33.315Z,29.80
2018-07-31T08:17:02.194Z,29.50
2018-07-31T08:19:31.091Z,29.20
2018-07-31T08:21:59.985Z,29.20
2018-07-31T08:24:28.882Z,29.00
2018-07-31T08:26:57.795Z,28.60
2018-07-31T08:29:26.788Z,28.30
2018-07-31T08:31:55.687Z,28.20
2018-07-31T08:34:25.013Z,28.20
2018-07-31T08:36:53.850Z,28.10
2018-07-31T08:39:22.774Z,27.70
2018-07-31T08:41:51.658Z,27.60
2018-07-31T08:44:20.589Z,27.60
2018-07-31T08:46:49.494Z,27.50
2018-07-31T08:49:18.396Z,27.40
2018-07-31T08:51:47.302Z,27.30
2018-07-31T08:54:16.398Z,27.20
2018-07-31T08:56:45.295Z,27.40
2018-07-31T08:59:14.316Z,27.50
2018-07-31T09:01:44.332Z,28.00
2018-07-31T09:04:13.470Z,28.60
2018-07-31T09:06:42.366Z,29.10
2018-07-31T09:09:12.121Z,29.50
2018-07-31T09:11:41.066Z,29.50
2018-07-31T09:14:10.289Z,29.70
2018-07-31T09:16:39.195Z,29.60
2018-07-31T09:19:08.092Z,29.80
2018-07-31T09:21:37.106Z,30.20
2018-07-31T09:24:05.980Z,30.60
2018-07-31T09:26:34.899Z,30.90
2018-07-31T09:29:03.885Z,31.00
2018-07-31T09:31:32.785Z,30.90
2018-07-31T09:34:01.683Z,31.00
2018-07-31T09:36:30.605Z,30.80
2018-07-31T09:38:59.482Z,31.10
2018-07-31T09:41:28.384Z,31.30
2018-07-31T09:43:57.274Z,31.30
2018-07-31T09:46:26.174Z,31.50
2018-07-31T09:48:55.066Z,31.80
2018-07-31T09:51:23.962Z,31.90
2018-07-31T09:53:52.906Z,32.60
2018-07-31T09:56:21.811Z,33.10
2018-07-31T09:58:50.687Z,33.50
2018-07-31T10:01:20.123Z,33.90
2018-07-31T10:03:49.715Z,33.80
2018-07-31T10:06:18.601Z,33.80
2018-07-31T10:08:47.513Z,33.90
2018-07-31T10:11:16.408Z,33.80
2018-07-31T10:13:45.377Z,33.80
2018-07-31T10:16:14.354Z,33.60
2018-07-31T10:18:43.300Z,33.10
2018-07-31T10:21:12.260Z,32.90
2018-07-31T10:23:41.146Z,32.50
2018-07-31T10:26:10.043Z,32.10
2018-07-31T10:28:38.930Z,31.80
2018-07-31T10:31:07.825Z,32.40
2018-07-31T10:33:36.707Z,33.00
2018-07-31T10:36:05.599Z,33.20
2018-07-31T10:38:34.475Z,33.20
2018-07-31T10:41:03.366Z,33.30
2018-07-31T10:43:32.272Z,33.60
2018-07-31T10:46:01.155Z,34.00
2018-07-31T10:48:30.062Z,34.40
2018-07-31T10:50:58.986Z,34.20
2018-07-31T10:53:27.827Z,34.20
2018-07-31T10:55:56.732Z,34.00
2018-07-31T10:58:25.988Z,34.40
2018-07-31T11:00:54.987Z,34.90
2018-07-31T11:03:23.962Z,34.80
2018-07-31T11:05:52.851Z,34.70
2018-07-31T11:08:21.746Z,34.80
2018-07-31T11:10:50.631Z,34.80
2018-07-31T11:13:19.547Z,34.60
2018-07-31T11:15:48.441Z,34.90
2018-07-31T11:18:17.350Z,34.70
2018-07-31T11:20:46.278Z,34.70
2018-07-31T11:23:15.740Z,34.60
2018-07-31T11:25:44.626Z,34.60
2018-07-31T11:28:13.606Z,34.30
2018-07-31T11:30:43.087Z,34.20
2018-07-31T11:33:12.018Z,34.20
2018-07-31T11:35:40.897Z,34.20
2018-07-31T11:38:09.804Z,34.40
2018-07-31T11:40:38.678Z,34.60
2018-07-31T11:43:07.592Z,34.00
2018-07-31T11:45:36.557Z,34.00
2018-07-31T11:48:05.418Z,34.10
2018-07-31T11:50:34.373Z,34.50
2018-07-31T11:53:03.286Z,34.70
2018-07-31T11:55:32.348Z,34.70
2018-07-31T11:58:01.262Z,34.70
2018-07-31T12:00:30.151Z,35.10
2018-07-31T12:02:59.033Z,35.40
2018-07-31T12:05:27.938Z,35.00
2018-07-31T12:07:56.963Z,35.20
2018-07-31T12:10:25.879Z,35.40
2018-07-31T12:12:54.860Z,35.40
2018-07-31T12:15:23.763Z,35.70
2018-07-31T12:20:21.694Z,34.80
2018-07-31T12:22:50.589Z,34.10
2018-07-31T12:25:19.592Z,34.20
2018-07-31T12:27:48.475Z,34.60
2018-07-31T12:30:17.358Z,34.40
2018-07-31T12:32:46.268Z,34.20
2018-07-31T12:35:15.180Z,34.10
2018-07-31T12:37:44.061Z,34.50
2018-07-31T12:40:13.044Z,34.80
2018-07-31T12:42:42.041Z,34.70
2018-07-31T12:45:10.917Z,34.90
2018-07-31T12:47:39.806Z,35.00
2018-07-31T12:50:08.800Z,35.10
2018-07-31T12:52:37.662Z,35.20
2018-07-31T12:55:06.611Z,35.30
2018-07-31T12:57:35.513Z,35.10
2018-07-31T13:00:04.686Z,35.00
2018-07-31T13:02:33.584Z,34.70
2018-07-31T13:05:02.471Z,35.00
2018-07-31T13:07:31.363Z,35.40
2018-07-31T13:10:00.279Z,35.30
2018-07-31T13:12:29.470Z,35.10
2018-07-31T13:14:58.363Z,34.90
2018-07-31T13:17:27.251Z,35.10
2018-07-31T13:19:56.148Z,35.30
2018-07-31T13:22:25.035Z,35.40
2018-07-31T13:24:53.933Z,35.30
2018-07-31T13:27:22.819Z,35.30
2018-07-31T13:29:51.742Z,35.10
2018-07-31T13:32:20.625Z,34.90
2018-07-31T13:34:49.517Z,34.70
2018-07-31T13:37:18.635Z,34.70
2018-07-31T13:39:47.547Z,34.90
2018-07-31T13:42:16.544Z,34.90
2018-07-31T13:44:45.418Z,34.90
2018-07-31T13:47:14.406Z,35.20
2018-07-31T13:49:43.293Z,35.00
2018-07-31T13:52:12.192Z,34.90
2018-07-31T13:54:41.097Z,35.30
2018-07-31T13:57:09.978Z,35.50
2018-07-31T13:59:38.882Z,35.40
2018-07-31T14:02:07.846Z,35.60
2018-07-31T14:04:36.750Z,35.60
2018-07-31T14:07:05.714Z,35.40
2018-07-31T14:09:34.595Z,35.20
2018-07-31T14:14:32.055Z,35.60
2018-07-31T14:17:00.947Z,35.20
2018-07-31T14:19:29.841Z,35.10
2018-07-31T14:21:58.740Z,35.10
2018-07-31T14:24:27.677Z,35.00
2018-07-31T14:26:56.542Z,34.70
2018-07-31T14:29:25.422Z,34.60
2018-07-31T14:31:54.326Z,34.60
2018-07-31T14:34:23.458Z,34.80
2018-07-31T14:36:52.377Z,34.70
2018-07-31T14:39:21.246Z,34.70
2018-07-31T14:41:50.316Z,34.60
2018-07-31T14:44:19.205Z,34.40
2018-07-31T14:46:48.090Z,34.30
2018-07-31T14:49:16.987Z,33.90
2018-07-31T14:51:45.874Z,33.50
2018-07-31T14:54:15.003Z,33.40
2018-07-31T14:56:43.922Z,33.80
2018-07-31T14:59:12.882Z,34.20
2018-07-31T15:01:41.779Z,34.30
2018-07-31T15:04:10.671Z,34.10
2018-07-31T15:06:39.588Z,34.00
2018-07-31T15:09:09.407Z,33.80
2018-07-31T15:11:38.323Z,34.00
2018-07-31T15:14:07.210Z,34.20
2018-07-31T15:16:36.169Z,34.20
2018-07-31T15:19:05.081Z,34.20
2018-07-31T15:21:33.991Z,34.30
2018-07-31T15:24:02.884Z,34.30
2018-07-31T15:26:31.894Z,34.30
2018-07-31T15:29:00.809Z,34.30
2018-07-31T15:31:29.771Z,34.30
2018-07-31T15:33:58.676Z,34.10
2018-07-31T15:36:27.629Z,34.10
2018-07-31T15:38:56.523Z,34.10
2018-07-31T15:41:25.486Z,34.10
2018-07-31T15:43:54.370Z,34.20
2018-07-31T15:46:23.717Z,34.00
2018-07-31T15:48:52.804Z,34.00
2018-07-31T15:51:21.942Z,34.10
2018-07-31T15:53:51.266Z,34.10
2018-07-31T15:56:20.192Z,33.80
2018-07-31T15:58:49.641Z,33.80
2018-07-31T16:01:18.867Z,33.80
2018-07-31T16:03:48.266Z,33.80
2018-07-31T16:06:17.532Z,33.90
2018-07-31T16:08:47.414Z,34.00
2018-07-31T16:11:17.980Z,34.00
2018-07-31T16:13:47.613Z,34.00
2018-07-31T16:16:17.131Z,33.90
2018-07-31T16:18:46.530Z,33.80
2018-07-31T16:21:16.545Z,33.60
2018-07-31T16:23:47.779Z,33.40
2018-07-31T16:26:16.904Z,33.30
2018-07-31T16:28:45.888Z,33.10
2018-07-31T16:31:14.950Z,32.90
2018-07-31T16:33:43.988Z,32.90
2018-07-31T16:36:13.004Z,32.80
2018-07-31T16:38:42.234Z,32.80
2018-07-31T16:41:11.210Z,32.80
2018-07-31T16:43:40.115Z,32.80
2018-07-31T16:46:10.826Z,32.80
2018-07-31T16:48:40.181Z,32.60
2018-07-31T16:51:09.134Z,32.50
2018-07-31T16:53:39.154Z,32.40
2018-07-31T16:56:09.468Z,32.20
2018-07-31T16:58:39.230Z,32.10
2018-07-31T17:01:09.341Z,32.00
2018-07-31T17:03:38.433Z,31.80
2018-07-31T17:06:07.344Z,31.70
2018-07-31T17:08:38.167Z,31.50
2018-07-31T17:11:08.048Z,31.40
2018-07-31T17:13:37.923Z,31.20
2018-07-31T17:16:07.470Z,31.00
2018-07-31T17:18:37.398Z,31.10
2018-07-31T17:21:06.334Z,31.00
2018-07-31T17:23:36.707Z,30.90
2018-07-31T17:26:06.211Z,30.80
2018-07-31T17:28:35.134Z,30.70
2018-07-31T17:31:03.998Z,30.70
2018-07-31T17:33:32.891Z,30.70
2018-07-31T17:36:02.934Z,30.70
2018-07-31T17:38:33.259Z,30.60
2018-07-31T17:41:03.567Z,30.50
2018-07-31T17:43:34.053Z,30.50
2018-07-31T17:48:33.370Z,30.40
2018-07-31T17:51:02.638Z,30.30
2018-07-31T17:53:34.380Z,30.20
2018-07-31T17:56:04.961Z,30.00
2018-07-31T17:58:34.377Z,30.00
2018-07-31T18:01:04.114Z,29.90
2018-07-31T18:03:33.992Z,29.70
2018-07-31T18:06:03.028Z,29.50
2018-07-31T18:08:31.960Z,29.30
2018-07-31T18:11:03.001Z,29.30
2018-07-31T18:13:34.146Z,29.20
2018-07-31T18:16:04.048Z,29.10
2018-07-31T18:18:33.835Z,29.00
2018-07-31T18:21:03.438Z,28.90
2018-07-31T18:23:32.703Z,28.80
2018-07-31T18:28:30.114Z,28.70
2018-07-31T18:30:58.996Z,28.50
2018-07-31T18:33:27.936Z,28.40
2018-07-31T18:35:56.867Z,28.30
2018-07-31T18:38:25.758Z,28.20
2018-07-31T18:40:54.670Z,28.10
2018-07-31T18:43:23.552Z,28.00
2018-07-31T18:45:52.514Z,27.90
2018-07-31T18:48:21.394Z,27.80
2018-07-31T18:50:50.312Z,27.70
2018-07-31T18:53:19.281Z,27.60
2018-07-31T18:55:48.113Z,27.50
2018-07-31T18:58:17.151Z,27.40
2018-07-31T19:00:46.083Z,27.30
2018-07-31T19:03:14.981Z,27.10
2018-07-31T19:05:43.932Z,27.10
2018-07-31T19:08:12.823Z,27.00
2018-07-31T19:10:41.702Z,27.00
2018-07-31T19:13:10.678Z,26.90
2018-07-31T19:15:39.523Z,26.90
2018-07-31T19:18:08.439Z,26.90
2018-07-31T19:23:05.907Z,26.60
2018-07-31T19:25:34.924Z,26.60
2018-07-31T19:28:03.872Z,26.50
2018-07-31T19:30:32.690Z,26.50
2018-07-31T19:33:01.677Z,26.40
2018-07-31T19:35:30.583Z,26.40
2018-07-31T19:37:59.498Z,26.30
2018-07-31T19:40:28.454Z,26.30
2018-07-31T19:42:57.651Z,26.20
2018-07-31T19:45:27.547Z,26.20
2018-07-31T19:47:56.508Z,26.20
2018-07-31T19:50:25.490Z,26.10
2018-07-31T19:52:54.370Z,26.00
2018-07-31T19:55:23.980Z,26.00
2018-07-31T19:57:53.143Z,25.90
2018-07-31T20:02:51.468Z,25.90
2018-07-31T20:05:20.937Z,25.90
2018-07-31T20:07:50.438Z,25.80
2018-07-31T20:10:19.463Z,25.80
2018-07-31T20:12:48.349Z,25.80
2018-07-31T20:15:17.379Z,25.80
2018-07-31T20:17:47.083Z,25.70
2018-07-31T20:20:16.458Z,25.70
2018-07-31T20:22:45.581Z,25.60
2018-07-31T20:25:14.678Z,25.50
2018-07-31T20:27:44.097Z,25.60
2018-07-31T20:30:13.036Z,25.50
2018-07-31T20:32:42.473Z,25.40
2018-07-31T20:35:11.380Z,25.40
2018-07-31T20:37:41.255Z,25.40
2018-07-31T20:40:11.104Z,25.30
2018-07-31T20:42:40.595Z,25.30
2018-07-31T20:45:09.571Z,25.20
2018-07-31T20:47:39.066Z,25.10
2018-07-31T20:50:07.978Z,25.10
2018-07-31T20:52:37.171Z,25.10
2018-07-31T20:55:06.208Z,25.00
2018-07-31T20:57:35.784Z,25.00
2018-07-31T21:00:05.590Z,25.00
2018-07-31T21:02:35.027Z,25.00
2018-07-31T21:05:04.473Z,25.00
2018-07-31T21:07:33.596Z,25.00
2018-07-31T21:10:02.701Z,24.90
2018-07-31T21:12:31.889Z,24.90
2018-07-31T21:15:00.850Z,24.80
2018-07-31T21:17:30.026Z,24.80
2018-07-31T21:19:59.721Z,24.80
2018-07-31T21:22:28.952Z,24.70
2018-07-31T21:24:57.932Z,24.70
2018-07-31T21:27:26.859Z,24.60
2018-07-31T21:29:55.779Z,24.60
2018-07-31T21:32:25.026Z,24.50
2018-07-31T21:34:54.087Z,24.50
2018-07-31T21:37:23.098Z,24.50
2018-07-31T21:39:52.142Z,24.50
2018-07-31T21:42:21.399Z,24.40
2018-07-31T21:44:50.459Z,24.40
2018-07-31T21:47:19.523Z,24.40
2018-07-31T21:49:48.419Z,24.30
2018-07-31T21:52:17.792Z,24.30
2018-07-31T21:54:46.999Z,24.30
2018-07-31T21:57:15.966Z,24.20
2018-07-31T21:59:45.053Z,24.20
2018-07-31T22:02:14.444Z,24.20
2018-07-31T22:04:43.717Z,24.20
2018-07-31T22:07:13.023Z,24.10
2018-07-31T22:09:44.145Z,24.10
2018-07-31T22:12:13.419Z,24.10
2018-07-31T22:14:43.951Z,24.00
2018-07-31T22:17:13.540Z,23.90
2018-07-31T22:19:42.551Z,23.90
2018-07-31T22:22:11.881Z,23.70
2018-07-31T22:24:40.915Z,23.70
2018-07-31T22:27:10.012Z,23.60
2018-07-31T22:32:08.293Z,23.60
2018-07-31T22:34:37.378Z,23.50
2018-07-31T22:37:06.278Z,23.50
2018-07-31T22:39:35.460Z,23.40
2018-07-31T22:42:04.551Z,23.40
2018-07-31T22:44:40.304Z,23.40
2018-07-31T22:47:09.402Z,23.30
2018-07-31T22:49:38.440Z,23.20
2018-07-31T22:52:07.745Z,23.20
2018-07-31T22:54:36.682Z,23.20
2018-07-31T22:57:06.230Z,23.10
2018-07-31T22:59:36.225Z,23.10
2018-07-31T23:02:05.391Z,22.90
2018-07-31T23:04:34.346Z,22.90
2018-07-31T23:07:03.272Z,22.90
2018-07-31T23:09:32.556Z,22.90
2018-07-31T23:12:01.781Z,22.80
2018-07-31T23:14:30.654Z,22.60
2018-07-31T23:16:59.662Z,22.30
2018-07-31T23:19:28.585Z,22.10
2018-07-31T23:21:57.549Z,21.90
2018-07-31T23:24:26.634Z,21.60
2018-07-31T23:26:56.221Z,21.50
2018-07-31T23:29:26.366Z,21.40
2018-07-31T23:31:55.842Z,21.30
2018-07-31T23:34:25.972Z,21.20
2018-07-31T23:36:54.942Z,21.10
2018-07-31T23:39:23.963Z,21.10
2018-07-31T23:41:52.953Z,21.10
2018-07-31T23:44:22.456Z,21.20
2018-07-31T23:46:51.875Z,21.20
2018-07-31T23:49:20.856Z,21.10
2018-07-31T23:51:49.783Z,21.20
2018-07-31T23:54:18.668Z,21.20
2018-07-31T23:56:47.551Z,21.10
2018-07-31T23:59:16.460Z,21.00
